sensor_id;sensor_type;location;lat;lon;timestamp;temperature;humidity
17341;DHT22;8788;49.930;8.660;2022-09-16T04:05:22;15.80;99.90
17341;DHT22;8788;49.930;8.660;2022-09-16T04:07:49;15.80;99.90
17341;DHT22;8788;49.930;8.660;2022-09-16T04:10:16;15.80;99.90
17341;DHT22;8788;49.930;8.660;2022-09-16T04:12:44;15.80;99.90
17341;DHT22;8788;49.930;8.660;2022-09-16T04:15:11;15.90;99.90
17341;DHT22;8788;49.930;8.660;2022-09-16T04:17:38;15.90;99.90
17341;DHT22;8788;49.930;8.660;2022-09-16T04:20:07;16.00;99.90
17341;DHT22;8788;49.930;8.660;2022-09-16T04:22:35;16.00;99.90
17341;DHT22;8788;49.930;8.660;2022-09-16T04:25:03;16.00;99.90
17341;DHT22;8788;49.930;8.660;2022-09-16T04:27:30;16.00;99.90
17341;DHT22;8788;49.930;8.660;2022-09-16T04:29:57;16.00;99.90
17341;DHT22;8788;49.930;8.660;2022-09-16T04:32:24;16.00;99.90
17341;DHT22;8788;49.930;8.660;2022-09-16T04:34:51;16.00;99.90
17341;DHT22;8788;49.930;8.660;2022-09-16T04:37:20;16.00;99.90
17341;DHT22;8788;49.930;8.660;2022-09-16T04:39:48;16.00;99.90
17341;DHT22;8788;49.930;8.660;2022-09-16T04:42:15;16.00;99.90
17341;DHT22;8788;49.930;8.660;2022-09-16T04:44:42;16.00;99.90
17341;DHT22;8788;49.930;8.660;2022-09-16T04:47:09;16.00;99.90
17341;DHT22;8788;49.930;8.660;2022-09-16T04:49:36;16.00;99.90
17341;DHT22;8788;49.930;8.660;2022-09-16T04:52:03;15.90;99.90
17341;DHT22;8788;49.930;8.660;2022-09-16T04:54:30;15.80;99.90
17341;DHT22;8788;49.930;8.660;2022-09-16T04:56:59;15.80;99.90
17341;DHT22;8788;49.930;8.660;2022-09-16T04:59:26;15.80;99.90
17341;DHT22;8788;49.930;8.660;2022-09-16T05:01:53;15.80;99.90
17341;DHT22;8788;49.930;8.660;2022-09-16T05:04:21;15.70;99.90
17341;DHT22;8788;49.930;8.660;2022-09-16T05:06:48;15.70;99.90
17341;DHT22;8788;49.930;8.660;2022-09-16T05:09:15;15.70;99.90
17341;DHT22;8788;49.930;8.660;2022-09-16T05:11:42;15.70;99.90
17341;DHT22;8788;49.930;8.660;2022-09-16T05:14:13;15.70;99.90
17341;DHT22;8788;49.930;8.660;2022-09-16T05:16:40;15.70;99.90
17341;DHT22;8788;49.930;8.660;2022-09-16T05:19:09;15.80;99.90
17341;DHT22;8788;49.930;8.660;2022-09-16T05:21:37;15.80;99.90
17341;DHT22;8788;49.930;8.660;2022-09-16T05:24:07;15.70;99.90
17341;DHT22;8788;49.930;8.660;2022-09-16T05:26:36;15.70;99.90
17341;DHT22;8788;49.930;8.660;2022-09-16T05:29:05;15.70;99.90
17341;DHT22;8788;49.930;8.660;2022-09-16T05:31:35;15.70;99.90
17341;DHT22;8788;49.930;8.660;2022-09-16T05:34:04;15.60;99.90
17341;DHT22;8788;49.930;8.660;2022-09-16T05:36:33;15.60;99.90
17341;DHT22;8788;49.930;8.660;2022-09-16T05:39:02;15.60;99.90
17341;DHT22;8788;49.930;8.660;2022-09-16T05:41:29;15.60;99.90
17341;DHT22;8788;49.930;8.660;2022-09-16T05:43:57;15.70;99.90
17341;DHT22;8788;49.930;8.660;2022-09-16T05:46:25;15.70;99.90
17341;DHT22;8788;49.930;8.660;2022-09-16T05:48:54;15.70;99.90
17341;DHT22;8788;49.930;8.660;2022-09-16T05:51:22;15.80;99.90
17341;DHT22;8788;49.930;8.660;2022-09-16T05:53:50;15.80;99.90
17341;DHT22;8788;49.930;8.660;2022-09-16T05:56:19;15.80;99.90
17341;DHT22;8788;49.930;8.660;2022-09-16T05:58:47;15.80;99.90
17341;DHT22;8788;49.930;8.660;2022-09-16T06:01:16;15.80;99.90
17341;DHT22;8788;49.930;8.660;2022-09-16T06:03:45;15.80;99.90
17341;DHT22;8788;49.930;8.660;2022-09-16T06:06:19;15.70;99.90
17341;DHT22;8788;49.930;8.660;2022-09-16T06:08:48;15.70;99.90
17341;DHT22;8788;49.930;8.660;2022-09-16T06:11:15;15.70;99.90
17341;DHT22;8788;49.930;8.660;2022-09-16T06:13:43;15.80;99.90
17341;DHT22;8788;49.930;8.660;2022-09-16T06:16:10;15.80;99.90
17341;DHT22;8788;49.930;8.660;2022-09-16T06:18:39;15.80;99.90
17341;DHT22;8788;49.930;8.660;2022-09-16T06:21:08;15.90;99.90
17341;DHT22;8788;49.930;8.660;2022-09-16T06:23:37;16.00;99.90
17341;DHT22;8788;49.930;8.660;2022-09-16T06:26:07;16.10;99.90
17341;DHT22;8788;49.930;8.660;2022-09-16T06:28:34;16.20;99.90
17341;DHT22;8788;49.930;8.660;2022-09-16T06:31:04;16.20;99.90
17341;DHT22;8788;49.930;8.660;2022-09-16T06:33:32;16.20;99.90
17341;DHT22;8788;49.930;8.660;2022-09-16T06:36:02;16.10;99.90
17341;DHT22;8788;49.930;8.660;2022-09-16T06:38:29;16.10;99.90
17341;DHT22;8788;49.930;8.660;2022-09-16T06:40:59;16.20;99.90
17341;DHT22;8788;49.930;8.660;2022-09-16T06:43:26;16.20;99.90
17341;DHT22;8788;49.930;8.660;2022-09-16T06:45:57;16.30;99.90
17341;DHT22;8788;49.930;8.660;2022-09-16T06:48:25;16.40;99.90
17341;DHT22;8788;49.930;8.660;2022-09-16T06:51:03;16.40;99.90
17341;DHT22;8788;49.930;8.660;2022-09-16T06:53:31;16.30;99.90
17341;DHT22;8788;49.930;8.660;2022-09-16T06:56:01;16.30;99.90
17341;DHT22;8788;49.930;8.660;2022-09-16T06:58:31;16.30;99.90
17341;DHT22;8788;49.930;8.660;2022-09-16T07:01:03;16.40;99.90
17341;DHT22;8788;49.930;8.660;2022-09-16T07:03:30;16.40;99.90
17341;DHT22;8788;49.930;8.660;2022-09-16T07:05:58;16.40;99.90
17341;DHT22;8788;49.930;8.660;2022-09-16T07:08:27;16.40;99.90
17341;DHT22;8788;49.930;8.660;2022-09-16T07:10:56;16.50;99.90
17341;DHT22;8788;49.930;8.660;2022-09-16T07:13:25;16.50;99.90
17341;DHT22;8788;49.930;8.660;2022-09-16T07:15:52;16.50;99.90
17341;DHT22;8788;49.930;8.660;2022-09-16T07:18:20;16.50;99.90
17341;DHT22;8788;49.930;8.660;2022-09-16T07:20:47;16.50;99.90
17341;DHT22;8788;49.930;8.660;2022-09-16T07:23:14;16.60;99.90
17341;DHT22;8788;49.930;8.660;2022-09-16T07:25:41;16.60;99.90
17341;DHT22;8788;49.930;8.660;2022-09-16T07:28:08;16.60;99.90
17341;DHT22;8788;49.930;8.660;2022-09-16T07:30:37;16.60;99.90
17341;DHT22;8788;49.930;8.660;2022-09-16T07:33:04;16.60;99.90
17341;DHT22;8788;49.930;8.660;2022-09-16T07:35:31;16.60;99.90
17341;DHT22;8788;49.930;8.660;2022-09-16T07:37:59;16.60;99.90
17341;DHT22;8788;49.930;8.660;2022-09-16T07:40:26;16.60;99.90
17341;DHT22;8788;49.930;8.660;2022-09-16T07:42:53;16.60;99.90
17341;DHT22;8788;49.930;8.660;2022-09-16T07:45:20;16.60;99.90
17341;DHT22;8788;49.930;8.660;2022-09-16T07:47:49;16.50;99.90
17341;DHT22;8788;49.930;8.660;2022-09-16T07:50:16;16.50;99.90
17341;DHT22;8788;49.930;8.660;2022-09-16T07:52:43;16.50;99.90
17341;DHT22;8788;49.930;8.660;2022-09-16T07:55:10;16.50;99.90
17341;DHT22;8788;49.930;8.660;2022-09-16T07:57:41;16.50;99.90
17341;DHT22;8788;49.930;8.660;2022-09-16T08:00:10;16.50;99.90
17341;DHT22;8788;49.930;8.660;2022-09-16T08:02:37;16.60;99.90
17341;DHT22;8788;49.930;8.660;2022-09-16T08:05:07;16.60;99.90
17341;DHT22;8788;49.930;8.660;2022-09-16T08:07:34;16.60;99.90
17341;DHT22;8788;49.930;8.660;2022-09-16T08:10:02;16.70;99.90
17341;DHT22;8788;49.930;8.660;2022-09-16T08:12:29;16.60;99.90
17341;DHT22;8788;49.930;8.660;2022-09-16T08:14:58;16.60;99.90
17341;DHT22;8788;49.930;8.660;2022-09-16T08:17:25;16.60;99.90
17341;DHT22;8788;49.930;8.660;2022-09-16T08:19:52;16.50;99.90
17341;DHT22;8788;49.930;8.660;2022-09-16T08:22:21;16.50;99.90
17341;DHT22;8788;49.930;8.660;2022-09-16T08:24:50;16.60;99.90
17341;DHT22;8788;49.930;8.660;2022-09-16T08:27:17;16.70;99.90
17341;DHT22;8788;49.930;8.660;2022-09-16T08:29:44;16.80;99.90
17341;DHT22;8788;49.930;8.660;2022-09-16T08:32:11;17.10;99.90
17341;DHT22;8788;49.930;8.660;2022-09-16T08:34:38;17.20;99.90
17341;DHT22;8788;49.930;8.660;2022-09-16T08:37:06;17.40;99.90
17341;DHT22;8788;49.930;8.660;2022-09-16T08:39:35;17.40;99.90
17341;DHT22;8788;49.930;8.660;2022-09-16T08:42:35;17.50;99.90
17341;DHT22;8788;49.930;8.660;2022-09-16T08:45:17;17.60;99.90
17341;DHT22;8788;49.930;8.660;2022-09-16T08:47:55;17.60;99.90
17341;DHT22;8788;49.930;8.660;2022-09-16T08:50:29;17.60;99.90
17341;DHT22;8788;49.930;8.660;2022-09-16T08:52:59;17.60;99.90
17341;DHT22;8788;49.930;8.660;2022-09-16T08:55:33;17.70;99.90
17341;DHT22;8788;49.930;8.660;2022-09-16T08:58:03;17.90;99.90
17341;DHT22;8788;49.930;8.660;2022-09-16T09:00:32;18.00;99.90
17341;DHT22;8788;49.930;8.660;2022-09-16T09:03:09;18.00;99.90
17341;DHT22;8788;49.930;8.660;2022-09-16T09:05:46;17.90;99.90
17341;DHT22;8788;49.930;8.660;2022-09-16T09:08:26;17.80;99.90
17341;DHT22;8788;49.930;8.660;2022-09-16T09:11:02;17.60;99.90
17341;DHT22;8788;49.930;8.660;2022-09-16T09:13:41;17.60;99.90
17341;DHT22;8788;49.930;8.660;2022-09-16T09:16:15;17.70;99.90
17341;DHT22;8788;49.930;8.660;2022-09-16T09:18:52;17.90;99.90
17341;DHT22;8788;49.930;8.660;2022-09-16T09:21:27;18.00;99.90
17341;DHT22;8788;49.930;8.660;2022-09-16T09:24:06;18.10;99.90
17341;DHT22;8788;49.930;8.660;2022-09-16T09:26:43;18.40;99.90
17341;DHT22;8788;49.930;8.660;2022-09-16T09:29:35;18.50;99.90
17341;DHT22;8788;49.930;8.660;2022-09-16T09:32:13;18.50;99.90
17341;DHT22;8788;49.930;8.660;2022-09-16T09:34:54;18.60;99.90
17341;DHT22;8788;49.930;8.660;2022-09-16T09:37:46;18.60;99.90
17341;DHT22;8788;49.930;8.660;2022-09-16T09:40:22;18.80;99.90
17341;DHT22;8788;49.930;8.660;2022-09-16T09:42:56;18.80;99.90
17341;DHT22;8788;49.930;8.660;2022-09-16T09:45:29;18.80;99.90
17341;DHT22;8788;49.930;8.660;2022-09-16T09:48:01;18.60;99.90
17341;DHT22;8788;49.930;8.660;2022-09-16T09:50:34;18.60;99.90
17341;DHT22;8788;49.930;8.660;2022-09-16T09:53:10;18.40;99.90
17341;DHT22;8788;49.930;8.660;2022-09-16T09:55:39;18.30;99.90
17341;DHT22;8788;49.930;8.660;2022-09-16T09:58:22;18.20;99.90
17341;DHT22;8788;49.930;8.660;2022-09-16T10:00:50;18.20;99.90
17341;DHT22;8788;49.930;8.660;2022-09-16T10:03:20;18.30;99.90
17341;DHT22;8788;49.930;8.660;2022-09-16T10:05:47;18.30;99.90
17341;DHT22;8788;49.930;8.660;2022-09-16T10:08:21;18.30;99.90
17341;DHT22;8788;49.930;8.660;2022-09-16T10:10:51;18.40;99.90
17341;DHT22;8788;49.930;8.660;2022-09-16T10:13:20;18.40;99.90
17341;DHT22;8788;49.930;8.660;2022-09-16T10:15:51;18.40;99.90
17341;DHT22;8788;49.930;8.660;2022-09-16T10:18:24;18.40;99.90
17341;DHT22;8788;49.930;8.660;2022-09-16T10:20:59;18.40;99.20
17341;DHT22;8788;49.930;8.660;2022-09-16T10:23:27;18.40;99.20
17341;DHT22;8788;49.930;8.660;2022-09-16T10:26:18;18.50;98.80
17341;DHT22;8788;49.930;8.660;2022-09-16T10:28:58;18.60;99.00
17341;DHT22;8788;49.930;8.660;2022-09-16T10:31:28;18.70;99.00
17341;DHT22;8788;49.930;8.660;2022-09-16T10:33:57;18.80;98.70
17341;DHT22;8788;49.930;8.660;2022-09-16T10:36:30;18.70;98.10
17341;DHT22;8788;49.930;8.660;2022-09-16T10:38:59;18.60;98.30
17341;DHT22;8788;49.930;8.660;2022-09-16T10:41:28;18.50;98.40
17341;DHT22;8788;49.930;8.660;2022-09-16T10:44:00;18.40;97.50
17341;DHT22;8788;49.930;8.660;2022-09-16T10:46:28;18.20;97.30
17341;DHT22;8788;49.930;8.660;2022-09-16T10:48:59;18.20;97.30
17341;DHT22;8788;49.930;8.660;2022-09-16T10:51:29;18.10;97.20
17341;DHT22;8788;49.930;8.660;2022-09-16T10:54:00;18.10;97.90
17341;DHT22;8788;49.930;8.660;2022-09-16T10:56:30;18.20;97.90
17341;DHT22;8788;49.930;8.660;2022-09-16T10:59:03;18.20;97.90
17341;DHT22;8788;49.930;8.660;2022-09-16T11:01:41;18.20;98.30
17341;DHT22;8788;49.930;8.660;2022-09-16T11:04:30;18.20;97.90
17341;DHT22;8788;49.930;8.660;2022-09-16T11:07:11;18.20;97.80
17341;DHT22;8788;49.930;8.660;2022-09-16T11:09:47;18.20;98.00
17341;DHT22;8788;49.930;8.660;2022-09-16T11:12:33;18.30;98.20
17341;DHT22;8788;49.930;8.660;2022-09-16T11:15:12;18.40;98.30
17341;DHT22;8788;49.930;8.660;2022-09-16T11:17:51;18.50;98.20
17341;DHT22;8788;49.930;8.660;2022-09-16T11:20:43;18.50;97.90
17341;DHT22;8788;49.930;8.660;2022-09-16T11:23:24;18.50;98.10
17341;DHT22;8788;49.930;8.660;2022-09-16T11:25:56;18.50;97.90
17341;DHT22;8788;49.930;8.660;2022-09-16T11:28:52;18.60;98.00
17341;DHT22;8788;49.930;8.660;2022-09-16T11:31:35;18.70;98.20
17341;DHT22;8788;49.930;8.660;2022-09-16T11:34:12;18.80;98.10
17341;DHT22;8788;49.930;8.660;2022-09-16T11:36:53;18.90;97.90
17341;DHT22;8788;49.930;8.660;2022-09-16T11:39:33;19.10;97.50
17341;DHT22;8788;49.930;8.660;2022-09-16T11:42:09;19.10;97.40
17341;DHT22;8788;49.930;8.660;2022-09-16T11:44:43;19.20;96.80
17341;DHT22;8788;49.930;8.660;2022-09-16T11:47:33;19.10;97.00
17341;DHT22;8788;49.930;8.660;2022-09-16T11:50:16;19.10;96.90
17341;DHT22;8788;49.930;8.660;2022-09-16T11:53:06;18.90;96.90
17341;DHT22;8788;49.930;8.660;2022-09-16T11:55:46;18.90;97.10
17341;DHT22;8788;49.930;8.660;2022-09-16T11:58:28;18.90;97.30
17341;DHT22;8788;49.930;8.660;2022-09-16T12:01:01;19.00;97.10
17341;DHT22;8788;49.930;8.660;2022-09-16T12:03:35;19.10;97.00
17341;DHT22;8788;49.930;8.660;2022-09-16T12:06:06;19.20;97.50
17341;DHT22;8788;49.930;8.660;2022-09-16T12:08:47;19.30;97.00
17341;DHT22;8788;49.930;8.660;2022-09-16T12:11:20;19.40;96.90
17341;DHT22;8788;49.930;8.660;2022-09-16T12:13:51;19.50;96.80
17341;DHT22;8788;49.930;8.660;2022-09-16T12:16:28;19.70;96.60
17341;DHT22;8788;49.930;8.660;2022-09-16T12:19:02;19.70;96.30
17341;DHT22;8788;49.930;8.660;2022-09-16T12:21:34;19.70;96.40
17341;DHT22;8788;49.930;8.660;2022-09-16T12:24:12;19.60;96.50
17341;DHT22;8788;49.930;8.660;2022-09-16T12:26:43;19.40;96.20
17341;DHT22;8788;49.930;8.660;2022-09-16T12:29:17;19.20;96.70
17341;DHT22;8788;49.930;8.660;2022-09-16T12:31:49;19.10;96.40
17341;DHT22;8788;49.930;8.660;2022-09-16T12:34:21;18.90;97.40
17341;DHT22;8788;49.930;8.660;2022-09-16T12:36:56;18.50;99.00
17341;DHT22;8788;49.930;8.660;2022-09-16T12:39:26;18.10;99.90
17341;DHT22;8788;49.930;8.660;2022-09-16T12:42:10;17.80;99.90
17341;DHT22;8788;49.930;8.660;2022-09-16T12:44:59;17.70;99.90
17341;DHT22;8788;49.930;8.660;2022-09-16T12:47:42;17.80;99.90
17341;DHT22;8788;49.930;8.660;2022-09-16T12:56:19;18.40;99.90
17341;DHT22;8788;49.930;8.660;2022-09-16T12:59:14;18.90;99.90
17341;DHT22;8788;49.930;8.660;2022-09-16T13:01:49;19.10;99.90
17341;DHT22;8788;49.930;8.660;2022-09-16T13:04:19;19.30;99.90
17341;DHT22;8788;49.930;8.660;2022-09-16T13:06:50;19.50;99.90
17341;DHT22;8788;49.930;8.660;2022-09-16T13:09:21;19.70;99.90
17341;DHT22;8788;49.930;8.660;2022-09-16T13:11:53;20.00;99.90
17341;DHT22;8788;49.930;8.660;2022-09-16T13:14:23;20.20;99.90
17341;DHT22;8788;49.930;8.660;2022-09-16T13:16:54;20.30;99.90
17341;DHT22;8788;49.930;8.660;2022-09-16T13:19:36;20.40;99.90
17341;DHT22;8788;49.930;8.660;2022-09-16T13:22:19;20.60;99.90
17341;DHT22;8788;49.930;8.660;2022-09-16T13:24:52;20.70;99.90
17341;DHT22;8788;49.930;8.660;2022-09-16T13:27:28;20.90;99.90
17341;DHT22;8788;49.930;8.660;2022-09-16T13:30:12;20.90;99.90
17341;DHT22;8788;49.930;8.660;2022-09-16T13:32:43;21.20;99.90
17341;DHT22;8788;49.930;8.660;2022-09-16T13:35:22;21.30;99.90
17341;DHT22;8788;49.930;8.660;2022-09-16T13:37:53;21.50;99.90
17341;DHT22;8788;49.930;8.660;2022-09-16T13:40:24;21.50;99.90
17341;DHT22;8788;49.930;8.660;2022-09-16T13:43:03;21.80;99.90
17341;DHT22;8788;49.930;8.660;2022-09-16T13:45:32;21.90;99.00
17341;DHT22;8788;49.930;8.660;2022-09-16T13:48:08;21.90;98.30
17341;DHT22;8788;49.930;8.660;2022-09-16T13:50:36;22.00;97.30
17341;DHT22;8788;49.930;8.660;2022-09-16T13:53:19;21.90;96.20
17341;DHT22;8788;49.930;8.660;2022-09-16T13:55:47;21.40;95.70
17341;DHT22;8788;49.930;8.660;2022-09-16T13:58:23;21.20;96.20
17341;DHT22;8788;49.930;8.660;2022-09-16T14:01:01;20.70;96.40
17341;DHT22;8788;49.930;8.660;2022-09-16T14:03:43;20.20;96.00
17341;DHT22;8788;49.930;8.660;2022-09-16T14:06:39;19.60;96.50
17341;DHT22;8788;49.930;8.660;2022-09-16T14:09:23;19.30;97.50
17341;DHT22;8788;49.930;8.660;2022-09-16T14:11:59;19.00;98.20
17341;DHT22;8788;49.930;8.660;2022-09-16T14:14:32;18.90;98.90
17341;DHT22;8788;49.930;8.660;2022-09-16T14:17:03;19.10;99.50
17341;DHT22;8788;49.930;8.660;2022-09-16T14:19:34;19.20;98.90
17341;DHT22;8788;49.930;8.660;2022-09-16T14:22:04;19.10;99.20
17341;DHT22;8788;49.930;8.660;2022-09-16T14:24:37;19.20;99.40
17341;DHT22;8788;49.930;8.660;2022-09-16T14:27:17;19.70;99.80
17341;DHT22;8788;49.930;8.660;2022-09-16T14:29:53;20.30;99.70
17341;DHT22;8788;49.930;8.660;2022-09-16T14:32:22;20.90;99.40
17341;DHT22;8788;49.930;8.660;2022-09-16T14:34:49;21.00;98.70
17341;DHT22;8788;49.930;8.660;2022-09-16T14:37:18;20.90;98.40
17341;DHT22;8788;49.930;8.660;2022-09-16T14:39:48;20.70;98.40
17341;DHT22;8788;49.930;8.660;2022-09-16T14:42:18;20.80;98.40
17341;DHT22;8788;49.930;8.660;2022-09-16T14:44:47;20.50;97.00
17341;DHT22;8788;49.930;8.660;2022-09-16T14:47:18;20.10;97.40
17341;DHT22;8788;49.930;8.660;2022-09-16T14:49:48;19.80;97.50
17341;DHT22;8788;49.930;8.660;2022-09-16T14:52:19;19.90;98.30
17341;DHT22;8788;49.930;8.660;2022-09-16T14:54:48;19.80;97.90
17341;DHT22;8788;49.930;8.660;2022-09-16T14:57:18;19.80;98.10
17341;DHT22;8788;49.930;8.660;2022-09-16T14:59:48;19.70;98.00
17341;DHT22;8788;49.930;8.660;2022-09-16T15:02:20;20.00;98.70
17341;DHT22;8788;49.930;8.660;2022-09-16T15:04:52;20.40;98.40
17341;DHT22;8788;49.930;8.660;2022-09-16T15:07:23;20.60;97.90
17341;DHT22;8788;49.930;8.660;2022-09-16T15:09:55;20.50;97.40
17341;DHT22;8788;49.930;8.660;2022-09-16T15:12:27;20.00;97.30
17341;DHT22;8788;49.930;8.660;2022-09-16T15:14:55;19.70;97.60
17341;DHT22;8788;49.930;8.660;2022-09-16T15:17:25;19.20;97.30
17341;DHT22;8788;49.930;8.660;2022-09-16T15:19:56;19.00;97.90
17341;DHT22;8788;49.930;8.660;2022-09-16T15:22:24;18.80;98.30
17341;DHT22;8788;49.930;8.660;2022-09-16T15:24:55;18.60;98.80
17341;DHT22;8788;49.930;8.660;2022-09-16T15:27:24;18.40;99.50
17341;DHT22;8788;49.930;8.660;2022-09-16T15:29:54;18.20;99.90
17341;DHT22;8788;49.930;8.660;2022-09-16T15:32:25;18.10;99.90
17341;DHT22;8788;49.930;8.660;2022-09-16T15:35:18;17.90;99.90
17341;DHT22;8788;49.930;8.660;2022-09-16T15:37:46;17.80;99.90
17341;DHT22;8788;49.930;8.660;2022-09-16T15:40:30;17.80;99.90
17341;DHT22;8788;49.930;8.660;2022-09-16T15:43:04;17.70;99.90
17341;DHT22;8788;49.930;8.660;2022-09-16T15:45:36;17.60;99.90
17341;DHT22;8788;49.930;8.660;2022-09-16T15:48:06;17.60;99.90
17341;DHT22;8788;49.930;8.660;2022-09-16T15:50:41;17.50;99.90
17341;DHT22;8788;49.930;8.660;2022-09-16T15:53:12;17.50;99.90
17341;DHT22;8788;49.930;8.660;2022-09-16T15:55:53;17.40;99.90
17341;DHT22;8788;49.930;8.660;2022-09-16T15:58:30;17.30;99.90
17341;DHT22;8788;49.930;8.660;2022-09-16T16:01:09;17.20;99.90
17341;DHT22;8788;49.930;8.660;2022-09-16T16:03:48;17.00;99.90
17341;DHT22;8788;49.930;8.660;2022-09-16T16:06:16;16.80;99.90
17341;DHT22;8788;49.930;8.660;2022-09-16T16:08:45;16.80;99.90
17341;DHT22;8788;49.930;8.660;2022-09-16T16:11:16;16.70;99.90
17341;DHT22;8788;49.930;8.660;2022-09-16T16:13:44;16.50;99.90
17341;DHT22;8788;49.930;8.660;2022-09-16T16:16:12;16.30;99.90
17341;DHT22;8788;49.930;8.660;2022-09-16T16:18:41;16.20;99.90
17341;DHT22;8788;49.930;8.660;2022-09-16T16:21:09;16.10;99.90
17341;DHT22;8788;49.930;8.660;2022-09-16T16:23:37;16.10;99.90
17341;DHT22;8788;49.930;8.660;2022-09-16T16:26:05;16.10;99.90
17341;DHT22;8788;49.930;8.660;2022-09-16T16:28:34;16.10;99.90
17341;DHT22;8788;49.930;8.660;2022-09-16T16:31:11;16.10;99.90
17341;DHT22;8788;49.930;8.660;2022-09-16T16:33:41;16.00;99.90
17341;DHT22;8788;49.930;8.660;2022-09-16T16:36:09;15.90;99.90
17341;DHT22;8788;49.930;8.660;2022-09-16T16:38:36;15.80;99.90
17341;DHT22;8788;49.930;8.660;2022-09-16T16:41:05;15.70;99.90
17341;DHT22;8788;49.930;8.660;2022-09-16T16:43:34;15.60;99.90
17341;DHT22;8788;49.930;8.660;2022-09-16T16:46:01;15.60;99.90
17341;DHT22;8788;49.930;8.660;2022-09-16T16:48:28;15.60;99.90
17341;DHT22;8788;49.930;8.660;2022-09-16T16:50:58;15.60;99.90
17341;DHT22;8788;49.930;8.660;2022-09-16T16:53:26;15.50;99.90
17341;DHT22;8788;49.930;8.660;2022-09-16T16:55:54;15.50;99.90
17341;DHT22;8788;49.930;8.660;2022-09-16T16:58:29;15.40;99.90
17341;DHT22;8788;49.930;8.660;2022-09-16T17:01:05;15.30;99.90
17341;DHT22;8788;49.930;8.660;2022-09-16T17:03:33;15.30;99.90
17341;DHT22;8788;49.930;8.660;2022-09-16T17:06:00;15.30;99.90
17341;DHT22;8788;49.930;8.660;2022-09-16T17:08:27;15.20;99.90
17341;DHT22;8788;49.930;8.660;2022-09-16T17:11:04;15.20;99.90
17341;DHT22;8788;49.930;8.660;2022-09-16T17:13:32;15.10;99.90
17341;DHT22;8788;49.930;8.660;2022-09-16T17:16:01;15.10;99.90
17341;DHT22;8788;49.930;8.660;2022-09-16T17:18:28;15.10;99.90
17341;DHT22;8788;49.930;8.660;2022-09-16T17:21:01;15.00;99.90
17341;DHT22;8788;49.930;8.660;2022-09-16T17:23:28;15.10;99.90
17341;DHT22;8788;49.930;8.660;2022-09-16T17:25:55;15.10;99.90
17341;DHT22;8788;49.930;8.660;2022-09-16T17:28:22;15.20;99.90
17341;DHT22;8788;49.930;8.660;2022-09-16T17:30:49;15.20;99.90
17341;DHT22;8788;49.930;8.660;2022-09-16T17:33:18;15.20;99.90
17341;DHT22;8788;49.930;8.660;2022-09-16T17:35:45;15.20;99.90
17341;DHT22;8788;49.930;8.660;2022-09-16T17:38:12;15.10;99.90
17341;DHT22;8788;49.930;8.660;2022-09-16T17:40:39;15.10;99.90
17341;DHT22;8788;49.930;8.660;2022-09-16T17:43:07;15.00;99.90
17341;DHT22;8788;49.930;8.660;2022-09-16T17:45:34;15.00;99.90
17341;DHT22;8788;49.930;8.660;2022-09-16T17:48:01;15.00;99.90
17341;DHT22;8788;49.930;8.660;2022-09-16T17:50:29;14.90;99.90
17341;DHT22;8788;49.930;8.660;2022-09-16T17:52:56;14.90;99.90
17341;DHT22;8788;49.930;8.660;2022-09-16T17:55:24;14.90;99.90
17341;DHT22;8788;49.930;8.660;2022-09-16T17:57:51;14.80;99.90
17341;DHT22;8788;49.930;8.660;2022-09-16T18:00:18;14.80;99.90
17341;DHT22;8788;49.930;8.660;2022-09-16T18:02:45;14.80;99.90
17341;DHT22;8788;49.930;8.660;2022-09-16T18:05:12;14.80;99.90
17341;DHT22;8788;49.930;8.660;2022-09-16T18:07:44;14.80;99.90
17341;DHT22;8788;49.930;8.660;2022-09-16T18:10:11;14.70;99.90
17341;DHT22;8788;49.930;8.660;2022-09-16T18:12:38;14.70;99.90
17341;DHT22;8788;49.930;8.660;2022-09-16T18:15:06;14.70;99.90
17341;DHT22;8788;49.930;8.660;2022-09-16T18:17:33;14.70;99.90
17341;DHT22;8788;49.930;8.660;2022-09-16T18:20:00;14.60;99.90
17341;DHT22;8788;49.930;8.660;2022-09-16T18:22:28;14.60;99.90
17341;DHT22;8788;49.930;8.660;2022-09-16T18:24:56;14.60;99.90
17341;DHT22;8788;49.930;8.660;2022-09-16T18:27:24;14.60;99.90
17341;DHT22;8788;49.930;8.660;2022-09-16T18:29:51;14.70;99.90
17341;DHT22;8788;49.930;8.660;2022-09-16T18:32:19;14.70;99.90
17341;DHT22;8788;49.930;8.660;2022-09-16T18:34:46;14.70;99.90
17341;DHT22;8788;49.930;8.660;2022-09-16T18:37:13;14.70;99.90
17341;DHT22;8788;49.930;8.660;2022-09-16T18:39:40;14.70;99.90
17341;DHT22;8788;49.930;8.660;2022-09-16T18:42:08;14.70;99.90
17341;DHT22;8788;49.930;8.660;2022-09-16T18:44:35;14.60;99.90
17341;DHT22;8788;49.930;8.660;2022-09-16T18:47:02;14.50;99.90
17341;DHT22;8788;49.930;8.660;2022-09-16T18:49:30;14.50;99.90
17341;DHT22;8788;49.930;8.660;2022-09-16T18:51:57;14.50;99.90
17341;DHT22;8788;49.930;8.660;2022-09-16T18:54:25;14.60;99.90
17341;DHT22;8788;49.930;8.660;2022-09-16T18:56:54;14.60;99.90
17341;DHT22;8788;49.930;8.660;2022-09-16T18:59:24;14.60;99.90
17341;DHT22;8788;49.930;8.660;2022-09-16T19:01:53;14.60;99.90
17341;DHT22;8788;49.930;8.660;2022-09-16T19:04:25;14.60;99.90
17341;DHT22;8788;49.930;8.660;2022-09-16T19:06:55;14.60;99.90
17341;DHT22;8788;49.930;8.660;2022-09-16T19:09:24;14.60;99.90
17341;DHT22;8788;49.930;8.660;2022-09-16T19:11:51;14.60;99.90
17341;DHT22;8788;49.930;8.660;2022-09-16T19:14:19;14.60;99.90
17341;DHT22;8788;49.930;8.660;2022-09-16T19:16:50;14.50;99.90
17341;DHT22;8788;49.930;8.660;2022-09-16T19:19:18;14.50;99.90
17341;DHT22;8788;49.930;8.660;2022-09-16T19:21:45;14.40;99.90
17341;DHT22;8788;49.930;8.660;2022-09-16T19:24:14;14.40;99.90
17341;DHT22;8788;49.930;8.660;2022-09-16T19:26:42;14.30;99.90
17341;DHT22;8788;49.930;8.660;2022-09-16T19:29:11;14.30;99.90
17341;DHT22;8788;49.930;8.660;2022-09-16T19:31:40;14.20;99.90
17341;DHT22;8788;49.930;8.660;2022-09-16T19:34:08;14.20;99.90
17341;DHT22;8788;49.930;8.660;2022-09-16T19:36:37;14.20;99.90
17341;DHT22;8788;49.930;8.660;2022-09-16T19:39:05;14.10;99.90
17341;DHT22;8788;49.930;8.660;2022-09-16T19:41:34;14.10;99.90
17341;DHT22;8788;49.930;8.660;2022-09-16T19:44:03;14.00;99.90
17341;DHT22;8788;49.930;8.660;2022-09-16T19:46:33;13.90;99.90
17341;DHT22;8788;49.930;8.660;2022-09-16T19:49:01;13.80;99.90
17341;DHT22;8788;49.930;8.660;2022-09-16T19:51:29;13.70;99.90
17341;DHT22;8788;49.930;8.660;2022-09-16T19:53:57;13.70;99.90
17341;DHT22;8788;49.930;8.660;2022-09-16T19:56:28;13.70;99.90
17341;DHT22;8788;49.930;8.660;2022-09-16T19:58:55;13.70;99.90
17341;DHT22;8788;49.930;8.660;2022-09-16T20:01:24;13.70;99.90
17341;DHT22;8788;49.930;8.660;2022-09-16T20:03:52;13.70;99.90
17341;DHT22;8788;49.930;8.660;2022-09-16T20:06:22;13.70;99.90
17341;DHT22;8788;49.930;8.660;2022-09-16T20:08:54;13.70;99.90
17341;DHT22;8788;49.930;8.660;2022-09-16T20:11:24;13.60;99.90
17341;DHT22;8788;49.930;8.660;2022-09-16T20:13:53;13.60;99.90
17341;DHT22;8788;49.930;8.660;2022-09-16T20:16:23;13.60;99.90
17341;DHT22;8788;49.930;8.660;2022-09-16T20:18:50;13.50;99.90
17341;DHT22;8788;49.930;8.660;2022-09-16T20:21:19;13.50;99.90